sensor_id;sensor_type;location;lat;lon;timestamp;P1;durP1;ratioP1;P2;durP2;ratioP2
2860;SDS011;1438;50.922;6.704;2023-07-22T00:00:47;7.53;;;5.77;;
2860;SDS011;1438;50.922;6.704;2023-07-22T00:03:13;9.00;;;7.00;;
2860;SDS011;1438;50.922;6.704;2023-07-22T00:05:39;12.67;;;6.93;;
2860;SDS011;1438;50.922;6.704;2023-07-22T00:08:05;10.20;;;7.30;;
2860;SDS011;1438;50.922;6.704;2023-07-22T00:10:31;10.53;;;7.57;;
2860;SDS011;1438;50.922;6.704;2023-07-22T00:12:56;8.20;;;6.10;;
2860;SDS011;1438;50.922;6.704;2023-07-22T00:15:22;10.80;;;6.97;;
2860;SDS011;1438;50.922;6.704;2023-07-22T00:17:48;6.90;;;6.03;;
2860;SDS011;1438;50.922;6.704;2023-07-22T00:20:15;11.40;;;7.00;;
2860;SDS011;1438;50.922;6.704;2023-07-22T00:22:41;10.20;;;7.07;;
2860;SDS011;1438;50.922;6.704;2023-07-22T00:25:07;9.00;;;7.17;;
2860;SDS011;1438;50.922;6.704;2023-07-22T00:27:37;9.50;;;6.15;;
2860;SDS011;1438;50.922;6.704;2023-07-22T00:30:04;9.70;;;7.50;;
2860;SDS011;1438;50.922;6.704;2023-07-22T00:32:34;8.57;;;7.73;;
2860;SDS011;1438;50.922;6.704;2023-07-22T00:35:02;9.90;;;6.50;;
2860;SDS011;1438;50.922;6.704;2023-07-22T00:37:31;16.80;;;8.00;;
2860;SDS011;1438;50.922;6.704;2023-07-22T00:39:57;8.90;;;7.47;;
2860;SDS011;1438;50.922;6.704;2023-07-22T00:42:23;9.93;;;6.70;;
2860;SDS011;1438;50.922;6.704;2023-07-22T00:44:49;9.40;;;6.73;;
2860;SDS011;1438;50.922;6.704;2023-07-22T00:47:14;6.87;;;5.93;;
2860;SDS011;1438;50.922;6.704;2023-07-22T00:49:42;9.90;;;8.13;;
2860;SDS011;1438;50.922;6.704;2023-07-22T00:52:09;12.73;;;7.00;;
2860;SDS011;1438;50.922;6.704;2023-07-22T00:54:34;15.03;;;8.10;;
2860;SDS011;1438;50.922;6.704;2023-07-22T00:57:00;9.57;;;7.00;;
2860;SDS011;1438;50.922;6.704;2023-07-22T00:59:25;8.73;;;6.43;;
2860;SDS011;1438;50.922;6.704;2023-07-22T01:01:51;9.17;;;7.00;;
2860;SDS011;1438;50.922;6.704;2023-07-22T01:04:18;9.17;;;7.20;;
2860;SDS011;1438;50.922;6.704;2023-07-22T01:06:47;9.50;;;7.35;;
2860;SDS011;1438;50.922;6.704;2023-07-22T01:09:14;9.40;;;6.30;;
2860;SDS011;1438;50.922;6.704;2023-07-22T01:11:40;10.07;;;7.13;;
2860;SDS011;1438;50.922;6.704;2023-07-22T01:14:05;9.03;;;7.00;;
2860;SDS011;1438;50.922;6.704;2023-07-22T01:16:33;10.30;;;7.43;;
2860;SDS011;1438;50.922;6.704;2023-07-22T01:18:59;8.32;;;7.00;;
2860;SDS011;1438;50.922;6.704;2023-07-22T01:21:25;9.73;;;6.93;;
2860;SDS011;1438;50.922;6.704;2023-07-22T01:23:51;9.73;;;7.27;;
2860;SDS011;1438;50.922;6.704;2023-07-22T01:26:17;10.02;;;6.88;;
2860;SDS011;1438;50.922;6.704;2023-07-22T01:28:44;11.80;;;7.40;;
2860;SDS011;1438;50.922;6.704;2023-07-22T01:31:09;11.13;;;7.60;;
2860;SDS011;1438;50.922;6.704;2023-07-22T01:33:35;11.53;;;7.30;;
2860;SDS011;1438;50.922;6.704;2023-07-22T01:36:00;9.20;;;7.67;;
2860;SDS011;1438;50.922;6.704;2023-07-22T01:38:26;10.02;;;7.72;;
2860;SDS011;1438;50.922;6.704;2023-07-22T01:40:54;9.77;;;7.20;;
2860;SDS011;1438;50.922;6.704;2023-07-22T01:43:19;9.37;;;7.60;;
2860;SDS011;1438;50.922;6.704;2023-07-22T01:45:46;9.48;;;8.13;;
2860;SDS011;1438;50.922;6.704;2023-07-22T01:48:11;9.17;;;7.40;;
2860;SDS011;1438;50.922;6.704;2023-07-22T01:50:37;13.60;;;8.50;;
2860;SDS011;1438;50.922;6.704;2023-07-22T01:53:02;11.23;;;7.70;;
2860;SDS011;1438;50.922;6.704;2023-07-22T01:55:30;13.82;;;8.38;;
2860;SDS011;1438;50.922;6.704;2023-07-22T01:57:57;11.07;;;7.97;;
2860;SDS011;1438;50.922;6.704;2023-07-22T02:00:23;10.17;;;7.97;;
2860;SDS011;1438;50.922;6.704;2023-07-22T02:02:48;12.20;;;8.47;;
2860;SDS011;1438;50.922;6.704;2023-07-22T02:05:14;12.17;;;8.07;;
2860;SDS011;1438;50.922;6.704;2023-07-22T02:07:40;11.13;;;8.00;;
2860;SDS011;1438;50.922;6.704;2023-07-22T02:10:06;10.67;;;7.43;;
2860;SDS011;1438;50.922;6.704;2023-07-22T02:12:31;10.13;;;8.07;;
2860;SDS011;1438;50.922;6.704;2023-07-22T02:14:57;12.10;;;8.00;;
2860;SDS011;1438;50.922;6.704;2023-07-22T02:17:22;12.77;;;8.60;;
2860;SDS011;1438;50.922;6.704;2023-07-22T02:19:48;11.97;;;8.00;;
2860;SDS011;1438;50.922;6.704;2023-07-22T02:22:14;11.10;;;8.85;;
2860;SDS011;1438;50.922;6.704;2023-07-22T02:24:40;10.03;;;8.30;;
2860;SDS011;1438;50.922;6.704;2023-07-22T02:27:06;12.97;;;8.67;;
2860;SDS011;1438;50.922;6.704;2023-07-22T02:29:33;8.90;;;7.85;;
2860;SDS011;1438;50.922;6.704;2023-07-22T02:31:59;10.63;;;8.50;;
2860;SDS011;1438;50.922;6.704;2023-07-22T02:34:25;12.73;;;8.23;;
2860;SDS011;1438;50.922;6.704;2023-07-22T02:36:50;11.80;;;9.07;;
2860;SDS011;1438;50.922;6.704;2023-07-22T02:39:16;12.90;;;9.30;;
2860;SDS011;1438;50.922;6.704;2023-07-22T02:41:41;13.73;;;9.10;;
2860;SDS011;1438;50.922;6.704;2023-07-22T02:44:07;11.17;;;8.57;;
2860;SDS011;1438;50.922;6.704;2023-07-22T02:46:33;9.63;;;8.53;;
2860;SDS011;1438;50.922;6.704;2023-07-22T02:48:58;10.77;;;8.20;;
2860;SDS011;1438;50.922;6.704;2023-07-22T02:51:24;11.27;;;9.20;;
2860;SDS011;1438;50.922;6.704;2023-07-22T02:53:49;11.97;;;9.10;;
2860;SDS011;1438;50.922;6.704;2023-07-22T02:56:15;11.63;;;8.70;;
2860;SDS011;1438;50.922;6.704;2023-07-22T02:58:41;9.83;;;8.43;;
2860;SDS011;1438;50.922;6.704;2023-07-22T03:01:07;12.50;;;10.23;;
2860;SDS011;1438;50.922;6.704;2023-07-22T03:03:34;11.90;;;8.70;;
2860;SDS011;1438;50.922;6.704;2023-07-22T03:06:00;11.65;;;8.77;;
2860;SDS011;1438;50.922;6.704;2023-07-22T03:08:26;12.52;;;9.40;;
2860;SDS011;1438;50.922;6.704;2023-07-22T03:10:52;10.83;;;8.20;;
2860;SDS011;1438;50.922;6.704;2023-07-22T03:13:18;11.00;;;9.10;;
2860;SDS011;1438;50.922;6.704;2023-07-22T03:15:43;10.97;;;8.93;;
2860;SDS011;1438;50.922;6.704;2023-07-22T03:18:09;14.23;;;9.70;;
2860;SDS011;1438;50.922;6.704;2023-07-22T03:20:36;15.63;;;8.65;;
2860;SDS011;1438;50.922;6.704;2023-07-22T03:23:03;12.48;;;9.70;;
2860;SDS011;1438;50.922;6.704;2023-07-22T03:25:29;10.10;;;8.85;;
2860;SDS011;1438;50.922;6.704;2023-07-22T03:27:55;13.50;;;8.83;;
2860;SDS011;1438;50.922;6.704;2023-07-22T03:30:21;12.50;;;8.60;;
2860;SDS011;1438;50.922;6.704;2023-07-22T03:32:48;10.38;;;8.63;;
2860;SDS011;1438;50.922;6.704;2023-07-22T03:35:15;10.40;;;7.97;;
2860;SDS011;1438;50.922;6.704;2023-07-22T03:37:41;12.07;;;8.98;;
2860;SDS011;1438;50.922;6.704;2023-07-22T03:40:08;9.80;;;8.40;;
2860;SDS011;1438;50.922;6.704;2023-07-22T03:42:55;11.17;;;8.40;;
2860;SDS011;1438;50.922;6.704;2023-07-22T03:45:22;11.68;;;8.68;;
2860;SDS011;1438;50.922;6.704;2023-07-22T03:47:58;11.07;;;8.50;;
2860;SDS011;1438;50.922;6.704;2023-07-22T03:50:24;12.00;;;8.30;;
2860;SDS011;1438;50.922;6.704;2023-07-22T03:52:51;14.95;;;8.73;;
2860;SDS011;1438;50.922;6.704;2023-07-22T03:55:16;10.00;;;8.33;;
2860;SDS011;1438;50.922;6.704;2023-07-22T03:57:44;12.07;;;8.60;;
2860;SDS011;1438;50.922;6.704;2023-07-22T04:00:10;12.77;;;8.80;;
2860;SDS011;1438;50.922;6.704;2023-07-22T04:02:36;12.43;;;8.27;;
2860;SDS011;1438;50.922;6.704;2023-07-22T04:05:02;11.93;;;8.57;;
2860;SDS011;1438;50.922;6.704;2023-07-22T04:07:28;12.83;;;9.47;;
2860;SDS011;1438;50.922;6.704;2023-07-22T04:09:54;12.90;;;7.60;;
2860;SDS011;1438;50.922;6.704;2023-07-22T04:12:19;11.20;;;8.27;;
2860;SDS011;1438;50.922;6.704;2023-07-22T04:14:45;10.60;;;8.20;;
2860;SDS011;1438;50.922;6.704;2023-07-22T04:17:10;12.57;;;8.70;;
2860;SDS011;1438;50.922;6.704;2023-07-22T04:19:36;14.50;;;9.00;;
2860;SDS011;1438;50.922;6.704;2023-07-22T04:22:02;12.23;;;9.00;;
2860;SDS011;1438;50.922;6.704;2023-07-22T04:24:32;12.70;;;8.50;;
2860;SDS011;1438;50.922;6.704;2023-07-22T04:26:57;11.20;;;8.60;;
2860;SDS011;1438;50.922;6.704;2023-07-22T04:29:23;10.30;;;8.07;;
2860;SDS011;1438;50.922;6.704;2023-07-22T04:31:49;10.60;;;8.73;;
2860;SDS011;1438;50.922;6.704;2023-07-22T04:34:14;9.57;;;7.67;;
2860;SDS011;1438;50.922;6.704;2023-07-22T04:36:40;13.47;;;9.50;;
2860;SDS011;1438;50.922;6.704;2023-07-22T04:39:05;13.20;;;9.70;;
2860;SDS011;1438;50.922;6.704;2023-07-22T04:41:32;12.50;;;8.43;;
2860;SDS011;1438;50.922;6.704;2023-07-22T04:43:58;11.70;;;9.00;;
2860;SDS011;1438;50.922;6.704;2023-07-22T04:46:24;11.30;;;8.63;;
2860;SDS011;1438;50.922;6.704;2023-07-22T04:48:50;12.20;;;8.67;;
2860;SDS011;1438;50.922;6.704;2023-07-22T04:51:20;10.93;;;8.00;;
2860;SDS011;1438;50.922;6.704;2023-07-22T04:53:45;11.20;;;7.97;;
2860;SDS011;1438;50.922;6.704;2023-07-22T04:56:11;10.73;;;8.70;;
2860;SDS011;1438;50.922;6.704;2023-07-22T04:58:36;13.83;;;7.70;;
2860;SDS011;1438;50.922;6.704;2023-07-22T05:01:02;11.03;;;7.50;;
2860;SDS011;1438;50.922;6.704;2023-07-22T05:03:27;11.00;;;8.70;;
2860;SDS011;1438;50.922;6.704;2023-07-22T05:05:53;11.07;;;8.53;;
2860;SDS011;1438;50.922;6.704;2023-07-22T05:08:18;11.07;;;8.10;;
2860;SDS011;1438;50.922;6.704;2023-07-22T05:10:44;11.43;;;9.30;;
2860;SDS011;1438;50.922;6.704;2023-07-22T05:13:10;11.43;;;8.30;;
2860;SDS011;1438;50.922;6.704;2023-07-22T05:15:35;10.23;;;8.00;;
2860;SDS011;1438;50.922;6.704;2023-07-22T05:18:01;11.27;;;8.43;;
2860;SDS011;1438;50.922;6.704;2023-07-22T05:20:26;12.70;;;9.30;;
2860;SDS011;1438;50.922;6.704;2023-07-22T05:22:52;11.00;;;8.10;;
2860;SDS011;1438;50.922;6.704;2023-07-22T05:25:17;10.87;;;7.87;;
2860;SDS011;1438;50.922;6.704;2023-07-22T05:27:43;10.73;;;7.80;;
2860;SDS011;1438;50.922;6.704;2023-07-22T05:30:09;8.77;;;7.73;;
2860;SDS011;1438;50.922;6.704;2023-07-22T05:32:35;13.27;;;8.53;;
2860;SDS011;1438;50.922;6.704;2023-07-22T05:35:01;13.13;;;8.47;;
2860;SDS011;1438;50.922;6.704;2023-07-22T05:37:29;10.60;;;8.37;;
2860;SDS011;1438;50.922;6.704;2023-07-22T05:39:54;12.90;;;7.90;;
2860;SDS011;1438;50.922;6.704;2023-07-22T05:42:20;13.60;;;8.57;;
2860;SDS011;1438;50.922;6.704;2023-07-22T05:44:45;12.30;;;7.90;;
2860;SDS011;1438;50.922;6.704;2023-07-22T05:47:12;9.50;;;6.60;;
2860;SDS011;1438;50.922;6.704;2023-07-22T05:49:39;9.63;;;7.80;;
2860;SDS011;1438;50.922;6.704;2023-07-22T05:52:04;9.80;;;7.27;;
2860;SDS011;1438;50.922;6.704;2023-07-22T05:54:30;9.70;;;8.17;;
2860;SDS011;1438;50.922;6.704;2023-07-22T05:56:56;8.93;;;7.03;;
2860;SDS011;1438;50.922;6.704;2023-07-22T05:59:22;9.83;;;8.00;;
2860;SDS011;1438;50.922;6.704;2023-07-22T06:01:47;9.70;;;8.70;;
2860;SDS011;1438;50.922;6.704;2023-07-22T06:04:13;8.50;;;7.03;;
2860;SDS011;1438;50.922;6.704;2023-07-22T06:06:39;9.10;;;7.33;;
2860;SDS011;1438;50.922;6.704;2023-07-22T06:09:04;8.43;;;7.50;;
2860;SDS011;1438;50.922;6.704;2023-07-22T06:11:30;8.90;;;6.80;;
2860;SDS011;1438;50.922;6.704;2023-07-22T06:13:55;10.17;;;7.70;;
2860;SDS011;1438;50.922;6.704;2023-07-22T06:16:21;8.10;;;7.30;;
2860;SDS011;1438;50.922;6.704;2023-07-22T06:18:47;10.20;;;6.80;;
2860;SDS011;1438;50.922;6.704;2023-07-22T06:21:13;8.40;;;7.03;;
2860;SDS011;1438;50.922;6.704;2023-07-22T06:23:38;7.43;;;6.63;;
2860;SDS011;1438;50.922;6.704;2023-07-22T06:26:04;8.37;;;5.77;;
2860;SDS011;1438;50.922;6.704;2023-07-22T06:28:29;8.53;;;6.20;;
2860;SDS011;1438;50.922;6.704;2023-07-22T06:30:55;12.20;;;7.10;;
2860;SDS011;1438;50.922;6.704;2023-07-22T06:33:22;8.00;;;7.10;;
2860;SDS011;1438;50.922;6.704;2023-07-22T06:35:47;8.23;;;7.23;;
2860;SDS011;1438;50.922;6.704;2023-07-22T06:38:13;8.13;;;6.37;;
2860;SDS011;1438;50.922;6.704;2023-07-22T06:40:39;7.00;;;6.30;;
2860;SDS011;1438;50.922;6.704;2023-07-22T06:43:05;8.80;;;6.47;;
2860;SDS011;1438;50.922;6.704;2023-07-22T06:45:31;10.97;;;6.30;;
2860;SDS011;1438;50.922;6.704;2023-07-22T06:47:57;9.10;;;6.60;;
2860;SDS011;1438;50.922;6.704;2023-07-22T06:50:23;9.33;;;6.17;;
2860;SDS011;1438;50.922;6.704;2023-07-22T06:52:48;12.33;;;6.53;;
2860;SDS011;1438;50.922;6.704;2023-07-22T06:55:14;17.40;;;7.10;;
2860;SDS011;1438;50.922;6.704;2023-07-22T06:57:40;11.30;;;6.23;;
2860;SDS011;1438;50.922;6.704;2023-07-22T07:00:06;10.93;;;5.73;;
2860;SDS011;1438;50.922;6.704;2023-07-22T07:02:32;11.40;;;6.80;;
2860;SDS011;1438;50.922;6.704;2023-07-22T07:04:57;11.63;;;6.50;;
2860;SDS011;1438;50.922;6.704;2023-07-22T07:07:23;14.20;;;6.30;;
2860;SDS011;1438;50.922;6.704;2023-07-22T07:09:48;16.70;;;6.80;;
2860;SDS011;1438;50.922;6.704;2023-07-22T07:12:15;13.73;;;7.40;;
2860;SDS011;1438;50.922;6.704;2023-07-22T07:14:41;7.00;;;5.40;;
2860;SDS011;1438;50.922;6.704;2023-07-22T07:17:06;9.97;;;5.97;;
2860;SDS011;1438;50.922;6.704;2023-07-22T07:19:32;10.90;;;6.47;;
2860;SDS011;1438;50.922;6.704;2023-07-22T07:21:58;9.07;;;6.10;;
2860;SDS011;1438;50.922;6.704;2023-07-22T07:24:24;9.70;;;5.90;;
2860;SDS011;1438;50.922;6.704;2023-07-22T07:26:49;8.40;;;5.97;;
2860;SDS011;1438;50.922;6.704;2023-07-22T07:29:15;7.60;;;4.70;;
2860;SDS011;1438;50.922;6.704;2023-07-22T07:31:40;7.87;;;6.50;;
2860;SDS011;1438;50.922;6.704;2023-07-22T07:34:06;13.93;;;7.13;;
2860;SDS011;1438;50.922;6.704;2023-07-22T07:36:32;8.57;;;6.23;;
2860;SDS011;1438;50.922;6.704;2023-07-22T07:39:01;7.03;;;5.33;;
2860;SDS011;1438;50.922;6.704;2023-07-22T07:41:27;7.13;;;5.83;;
2860;SDS011;1438;50.922;6.704;2023-07-22T07:43:53;8.40;;;6.73;;
2860;SDS011;1438;50.922;6.704;2023-07-22T07:48:49;7.93;;;5.50;;
2860;SDS011;1438;50.922;6.704;2023-07-22T07:51:20;9.13;;;6.20;;
2860;SDS011;1438;50.922;6.704;2023-07-22T07:53:46;8.63;;;5.60;;
2860;SDS011;1438;50.922;6.704;2023-07-22T07:56:12;9.00;;;5.60;;
2860;SDS011;1438;50.922;6.704;2023-07-22T07:58:39;10.13;;;6.00;;
2860;SDS011;1438;50.922;6.704;2023-07-22T08:01:05;8.17;;;6.30;;
2860;SDS011;1438;50.922;6.704;2023-07-22T08:03:31;9.63;;;6.20;;
2860;SDS011;1438;50.922;6.704;2023-07-22T08:05:58;6.60;;;5.47;;
2860;SDS011;1438;50.922;6.704;2023-07-22T08:08:23;8.00;;;5.23;;
2860;SDS011;1438;50.922;6.704;2023-07-22T08:13:27;7.33;;;5.60;;
2860;SDS011;1438;50.922;6.704;2023-07-22T08:15:55;7.40;;;5.50;;
2860;SDS011;1438;50.922;6.704;2023-07-22T08:18:20;6.40;;;5.20;;
2860;SDS011;1438;50.922;6.704;2023-07-22T08:20:46;6.60;;;5.10;;
2860;SDS011;1438;50.922;6.704;2023-07-22T08:23:12;5.40;;;4.90;;
2860;SDS011;1438;50.922;6.704;2023-07-22T08:25:38;7.50;;;5.80;;
2860;SDS011;1438;50.922;6.704;2023-07-22T08:28:04;6.63;;;4.93;;
2860;SDS011;1438;50.922;6.704;2023-07-22T08:30:29;12.20;;;7.30;;
2860;SDS011;1438;50.922;6.704;2023-07-22T08:32:55;7.97;;;5.40;;
2860;SDS011;1438;50.922;6.704;2023-07-22T08:35:20;9.07;;;5.87;;
2860;SDS011;1438;50.922;6.704;2023-07-22T08:37:47;8.47;;;6.13;;
2860;SDS011;1438;50.922;6.704;2023-07-22T08:40:13;8.37;;;6.50;;
2860;SDS011;1438;50.922;6.704;2023-07-22T08:42:38;10.80;;;5.87;;
2860;SDS011;1438;50.922;6.704;2023-07-22T08:45:06;8.50;;;6.23;;
2860;SDS011;1438;50.922;6.704;2023-07-22T08:47:34;6.17;;;5.53;;
2860;SDS011;1438;50.922;6.704;2023-07-22T08:50:04;6.20;;;5.60;;
2860;SDS011;1438;50.922;6.704;2023-07-22T08:52:33;8.00;;;5.70;;
2860;SDS011;1438;50.922;6.704;2023-07-22T08:54:59;9.70;;;5.00;;
2860;SDS011;1438;50.922;6.704;2023-07-22T08:57:26;6.97;;;5.77;;
2860;SDS011;1438;50.922;6.704;2023-07-22T08:59:54;6.13;;;5.20;;
2860;SDS011;1438;50.922;6.704;2023-07-22T09:02:22;6.30;;;5.70;;
2860;SDS011;1438;50.922;6.704;2023-07-22T09:04:50;8.20;;;5.40;;
2860;SDS011;1438;50.922;6.704;2023-07-22T09:07:16;7.27;;;5.87;;
2860;SDS011;1438;50.922;6.704;2023-07-22T09:09:44;6.83;;;4.67;;
2860;SDS011;1438;50.922;6.704;2023-07-22T09:12:11;8.60;;;5.50;;
2860;SDS011;1438;50.922;6.704;2023-07-22T09:14:39;8.97;;;4.77;;
2860;SDS011;1438;50.922;6.704;2023-07-22T09:17:05;6.70;;;4.40;;
2860;SDS011;1438;50.922;6.704;2023-07-22T09:19:31;7.43;;;4.50;;
2860;SDS011;1438;50.922;6.704;2023-07-22T09:21:57;6.63;;;4.90;;
2860;SDS011;1438;50.922;6.704;2023-07-22T09:24:24;7.50;;;5.17;;
2860;SDS011;1438;50.922;6.704;2023-07-22T09:26:51;6.37;;;4.40;;
2860;SDS011;1438;50.922;6.704;2023-07-22T09:29:17;5.27;;;3.93;;
2860;SDS011;1438;50.922;6.704;2023-07-22T09:31:52;6.20;;;3.17;;
2860;SDS011;1438;50.922;6.704;2023-07-22T09:34:18;3.70;;;3.40;;
2860;SDS011;1438;50.922;6.704;2023-07-22T09:36:54;4.60;;;3.57;;
2860;SDS011;1438;50.922;6.704;2023-07-22T09:39:21;7.37;;;3.83;;
2860;SDS011;1438;50.922;6.704;2023-07-22T09:41:48;2.87;;;2.67;;
2860;SDS011;1438;50.922;6.704;2023-07-22T09:44:14;4.90;;;3.80;;
2860;SDS011;1438;50.922;6.704;2023-07-22T09:46:40;4.30;;;3.90;;
2860;SDS011;1438;50.922;6.704;2023-07-22T09:49:11;4.77;;;3.03;;
2860;SDS011;1438;50.922;6.704;2023-07-22T09:51:38;3.60;;;2.80;;
2860;SDS011;1438;50.922;6.704;2023-07-22T09:54:05;2.97;;;2.73;;
2860;SDS011;1438;50.922;6.704;2023-07-22T09:56:32;4.20;;;2.87;;
2860;SDS011;1438;50.922;6.704;2023-07-22T09:59:11;2.90;;;2.57;;
2860;SDS011;1438;50.922;6.704;2023-07-22T10:01:38;3.47;;;2.43;;
2860;SDS011;1438;50.922;6.704;2023-07-22T10:04:04;3.40;;;2.43;;
2860;SDS011;1438;50.922;6.704;2023-07-22T10:06:31;4.87;;;3.07;;
2860;SDS011;1438;50.922;6.704;2023-07-22T10:09:04;3.97;;;2.63;;
2860;SDS011;1438;50.922;6.704;2023-07-22T10:11:33;4.60;;;2.60;;
2860;SDS011;1438;50.922;6.704;2023-07-22T10:14:02;3.27;;;2.70;;
2860;SDS011;1438;50.922;6.704;2023-07-22T10:16:28;3.40;;;2.30;;
2860;SDS011;1438;50.922;6.704;2023-07-22T10:18:55;2.93;;;2.73;;
2860;SDS011;1438;50.922;6.704;2023-07-22T10:21:21;2.27;;;2.07;;
2860;SDS011;1438;50.922;6.704;2023-07-22T10:23:48;3.17;;;2.70;;
2860;SDS011;1438;50.922;6.704;2023-07-22T10:26:15;3.67;;;2.83;;
2860;SDS011;1438;50.922;6.704;2023-07-22T10:28:43;3.33;;;2.40;;
2860;SDS011;1438;50.922;6.704;2023-07-22T10:31:10;2.53;;;2.33;;
2860;SDS011;1438;50.922;6.704;2023-07-22T10:33:37;2.23;;;2.03;;
2860;SDS011;1438;50.922;6.704;2023-07-22T10:36:07;3.00;;;2.27;;
2860;SDS011;1438;50.922;6.704;2023-07-22T10:38:34;4.33;;;3.60;;
2860;SDS011;1438;50.922;6.704;2023-07-22T10:41:01;4.67;;;2.60;;
2860;SDS011;1438;50.922;6.704;2023-07-22T10:43:37;3.07;;;2.77;;
2860;SDS011;1438;50.922;6.704;2023-07-22T10:46:11;3.63;;;2.90;;
2860;SDS011;1438;50.922;6.704;2023-07-22T10:48:41;2.77;;;2.27;;
2860;SDS011;1438;50.922;6.704;2023-07-22T10:51:09;4.83;;;2.50;;
2860;SDS011;1438;50.922;6.704;2023-07-22T10:53:42;3.23;;;2.93;;
2860;SDS011;1438;50.922;6.704;2023-07-22T10:56:15;2.67;;;2.40;;
2860;SDS011;1438;50.922;6.704;2023-07-22T11:12:05;2.60;;;2.40;;
2860;SDS011;1438;50.922;6.704;2023-07-22T11:14:38;2.67;;;2.43;;
2860;SDS011;1438;50.922;6.704;2023-07-22T11:17:09;2.93;;;2.73;;
2860;SDS011;1438;50.922;6.704;2023-07-22T11:19:36;2.40;;;2.20;;
2860;SDS011;1438;50.922;6.704;2023-07-22T11:22:02;4.73;;;3.23;;
2860;SDS011;1438;50.922;6.704;2023-07-22T11:24:28;2.93;;;2.70;;
2860;SDS011;1438;50.922;6.704;2023-07-22T11:26:55;2.87;;;2.30;;
2860;SDS011;1438;50.922;6.704;2023-07-22T11:29:21;3.17;;;2.73;;
2860;SDS011;1438;50.922;6.704;2023-07-22T11:31:47;2.90;;;2.53;;
2860;SDS011;1438;50.922;6.704;2023-07-22T11:34:15;2.40;;;2.20;;
2860;SDS011;1438;50.922;6.704;2023-07-22T11:36:42;2.70;;;2.50;;
2860;SDS011;1438;50.922;6.704;2023-07-22T11:39:12;2.60;;;2.40;;
2860;SDS011;1438;50.922;6.704;2023-07-22T11:41:40;4.80;;;3.00;;
2860;SDS011;1438;50.922;6.704;2023-07-22T11:44:06;4.00;;;2.63;;
2860;SDS011;1438;50.922;6.704;2023-07-22T11:49:29;2.83;;;2.40;;
2860;SDS011;1438;50.922;6.704;2023-07-22T11:51:58;2.67;;;2.20;;
2860;SDS011;1438;50.922;6.704;2023-07-22T11:54:24;4.53;;;2.50;;
2860;SDS011;1438;50.922;6.704;2023-07-22T11:56:50;3.00;;;2.70;;
2860;SDS011;1438;50.922;6.704;2023-07-22T11:59:16;3.13;;;2.70;;
2860;SDS011;1438;50.922;6.704;2023-07-22T12:01:45;4.40;;;2.57;;
2860;SDS011;1438;50.922;6.704;2023-07-22T12:04:12;3.00;;;2.27;;
2860;SDS011;1438;50.922;6.704;2023-07-22T12:06:38;3.40;;;2.60;;
2860;SDS011;1438;50.922;6.704;2023-07-22T12:09:04;2.50;;;2.30;;
2860;SDS011;1438;50.922;6.704;2023-07-22T12:11:33;2.43;;;2.20;;
2860;SDS011;1438;50.922;6.704;2023-07-22T12:14:09;3.10;;;2.40;;
2860;SDS011;1438;50.922;6.704;2023-07-22T12:16:36;2.97;;;2.67;;
2860;SDS011;1438;50.922;6.704;2023-07-22T12:19:04;3.20;;;2.00;;
2860;SDS011;1438;50.922;6.704;2023-07-22T12:21:30;2.43;;;2.23;;
2860;SDS011;1438;50.922;6.704;2023-07-22T12:23:56;2.67;;;2.40;;
2860;SDS011;1438;50.922;6.704;2023-07-22T12:26:22;2.77;;;2.10;;
2860;SDS011;1438;50.922;6.704;2023-07-22T12:28:47;2.77;;;1.90;;
2860;SDS011;1438;50.922;6.704;2023-07-22T12:31:13;2.57;;;2.17;;
2860;SDS011;1438;50.922;6.704;2023-07-22T12:33:39;3.57;;;2.43;;
2860;SDS011;1438;50.922;6.704;2023-07-22T12:36:04;2.70;;;2.23;;
2860;SDS011;1438;50.922;6.704;2023-07-22T12:38:30;2.47;;;1.90;;
2860;SDS011;1438;50.922;6.704;2023-07-22T12:40:57;2.80;;;2.53;;
2860;SDS011;1438;50.922;6.704;2023-07-22T12:43:22;2.00;;;1.80;;
2860;SDS011;1438;50.922;6.704;2023-07-22T12:45:48;2.70;;;2.30;;
2860;SDS011;1438;50.922;6.704;2023-07-22T12:48:14;2.60;;;2.03;;
2860;SDS011;1438;50.922;6.704;2023-07-22T12:50:39;12.97;;;3.10;;
2860;SDS011;1438;50.922;6.704;2023-07-22T12:53:05;2.40;;;2.20;;
2860;SDS011;1438;50.922;6.704;2023-07-22T12:55:31;2.07;;;1.90;;
2860;SDS011;1438;50.922;6.704;2023-07-22T12:57:56;2.30;;;2.10;;
2860;SDS011;1438;50.922;6.704;2023-07-22T13:00:22;2.83;;;2.60;;
2860;SDS011;1438;50.922;6.704;2023-07-22T13:02:47;2.70;;;2.50;;
2860;SDS011;1438;50.922;6.704;2023-07-22T13:05:13;3.20;;;2.10;;
2860;SDS011;1438;50.922;6.704;2023-07-22T13:07:39;2.70;;;2.50;;
2860;SDS011;1438;50.922;6.704;2023-07-22T13:10:05;2.93;;;2.70;;
2860;SDS011;1438;50.922;6.704;2023-07-22T13:12:36;5.07;;;2.77;;
2860;SDS011;1438;50.922;6.704;2023-07-22T13:15:02;3.20;;;2.40;;
2860;SDS011;1438;50.922;6.704;2023-07-22T13:17:29;5.40;;;3.03;;
2860;SDS011;1438;50.922;6.704;2023-07-22T13:19:54;3.13;;;2.50;;
2860;SDS011;1438;50.922;6.704;2023-07-22T13:22:21;3.27;;;2.33;;
2860;SDS011;1438;50.922;6.704;2023-07-22T13:24:46;2.63;;;2.30;;
2860;SDS011;1438;50.922;6.704;2023-07-22T13:27:12;3.50;;;2.40;;
2860;SDS011;1438;50.922;6.704;2023-07-22T13:29:37;4.00;;;3.20;;
2860;SDS011;1438;50.922;6.704;2023-07-22T13:32:03;3.50;;;2.77;;
2860;SDS011;1438;50.922;6.704;2023-07-22T13:34:29;3.37;;;2.50;;
2860;SDS011;1438;50.922;6.704;2023-07-22T13:36:55;4.00;;;2.70;;
2860;SDS011;1438;50.922;6.704;2023-07-22T13:39:21;4.03;;;2.67;;
2860;SDS011;1438;50.922;6.704;2023-07-22T13:41:46;6.43;;;2.50;;
2860;SDS011;1438;50.922;6.704;2023-07-22T13:44:12;3.50;;;3.20;;
2860;SDS011;1438;50.922;6.704;2023-07-22T13:46:38;10.20;;;2.77;;
2860;SDS011;1438;50.922;6.704;2023-07-22T13:49:03;3.23;;;2.93;;
2860;SDS011;1438;50.922;6.704;2023-07-22T13:51:29;2.80;;;2.60;;
2860;SDS011;1438;50.922;6.704;2023-07-22T13:53:55;3.30;;;2.87;;
2860;SDS011;1438;50.922;6.704;2023-07-22T13:56:22;4.70;;;2.80;;
2860;SDS011;1438;50.922;6.704;2023-07-22T13:58:47;5.43;;;3.20;;
2860;SDS011;1438;50.922;6.704;2023-07-22T14:01:13;5.90;;;3.27;;
2860;SDS011;1438;50.922;6.704;2023-07-22T14:03:39;6.50;;;3.30;;
2860;SDS011;1438;50.922;6.704;2023-07-22T14:06:04;5.93;;;3.43;;
2860;SDS011;1438;50.922;6.704;2023-07-22T14:08:30;3.67;;;3.37;;
2860;SDS011;1438;50.922;6.704;2023-07-22T14:10:56;4.40;;;4.00;;
2860;SDS011;1438;50.922;6.704;2023-07-22T14:13:21;3.63;;;2.90;;
2860;SDS011;1438;50.922;6.704;2023-07-22T14:15:47;4.63;;;3.40;;
2860;SDS011;1438;50.922;6.704;2023-07-22T14:18:12;4.63;;;3.00;;
2860;SDS011;1438;50.922;6.704;2023-07-22T14:20:43;3.27;;;3.00;;
2860;SDS011;1438;50.922;6.704;2023-07-22T14:23:08;3.93;;;2.93;;
2860;SDS011;1438;50.922;6.704;2023-07-22T14:25:34;3.80;;;3.30;;
2860;SDS011;1438;50.922;6.704;2023-07-22T14:28:00;7.60;;;2.70;;
2860;SDS011;1438;50.922;6.704;2023-07-22T14:30:25;6.20;;;2.63;;
2860;SDS011;1438;50.922;6.704;2023-07-22T14:32:51;2.80;;;2.60;;
2860;SDS011;1438;50.922;6.704;2023-07-22T14:35:16;3.80;;;3.23;;
2860;SDS011;1438;50.922;6.704;2023-07-22T14:37:42;3.63;;;3.33;;
2860;SDS011;1438;50.922;6.704;2023-07-22T14:40:08;4.53;;;3.40;;
2860;SDS011;1438;50.922;6.704;2023-07-22T14:42:34;3.47;;;3.17;;
2860;SDS011;1438;50.922;6.704;2023-07-22T14:44:59;5.87;;;2.80;;
2860;SDS011;1438;50.922;6.704;2023-07-22T14:47:25;3.37;;;2.53;;
2860;SDS011;1438;50.922;6.704;2023-07-22T14:49:51;3.40;;;2.80;;
2860;SDS011;1438;50.922;6.704;2023-07-22T14:52:16;4.83;;;3.10;;
2860;SDS011;1438;50.922;6.704;2023-07-22T14:54:42;3.67;;;2.73;;
2860;SDS011;1438;50.922;6.704;2023-07-22T14:57:08;5.13;;;3.20;;
2860;SDS011;1438;50.922;6.704;2023-07-22T14:59:34;4.97;;;3.50;;
2860;SDS011;1438;50.922;6.704;2023-07-22T15:01:59;4.30;;;2.80;;
2860;SDS011;1438;50.922;6.704;2023-07-22T15:04:25;4.30;;;2.70;;
2860;SDS011;1438;50.922;6.704;2023-07-22T15:06:50;6.30;;;2.93;;
2860;SDS011;1438;50.922;6.704;2023-07-22T15:09:16;5.83;;;3.03;;
2860;SDS011;1438;50.922;6.704;2023-07-22T15:11:42;4.57;;;3.10;;
2860;SDS011;1438;50.922;6.704;2023-07-22T15:14:07;4.13;;;3.00;;
2860;SDS011;1438;50.922;6.704;2023-07-22T15:16:33;8.83;;;2.63;;
2860;SDS011;1438;50.922;6.704;2023-07-22T15:18:58;10.73;;;3.47;;
2860;SDS011;1438;50.922;6.704;2023-07-22T15:21:24;5.30;;;2.70;;
2860;SDS011;1438;50.922;6.704;2023-07-22T15:23:50;5.10;;;3.40;;
2860;SDS011;1438;50.922;6.704;2023-07-22T15:26:15;5.80;;;2.80;;